الصفحة الرئيسية
METAR-TAF:

METAR-TAF

مطار :

قراغندي, كازاخستان

دائرة عرض: 49-48N, خط طول: 073-09E, ارتفاع: 553 متر

مراقبة الطقس الحالي

تاريخ ووقت الإصدار 28 دقيقة قبل الساعة 18:30UTC
ريح 6 عقدة من الشرق/الشمال الشرقي
درجة الحرارة -25°درجة مئوية
الرطوبة 76%
ضغط 1023 hPa
الرؤية: 7000 متر

METAR: UAKK 221830Z 07003MPS 7000 NSC M25/M28 Q1023 R05/820550 NOSIG RMK QFE720/0960

زمن: 00:58 (18:58 UTC)

توقعات

تاريخ ووقت الإصدار 1ساعة و 58 دقيقة قبل الساعة 17:00UTC
التوقعات صالحة من22 الساعة 18 UTC إلى 23 الساعة 18 UTC
ريح 4 عقدةمن اتجاهات متغيرة
الرؤية 10 كم أو أكثر
غيوم متفرقة على ارتفاع 1000 قدم
غيوم مفككة على ارتفاع 10000 قدم
مؤقت
من 22 الساعة 18 UTC إلى 23 الساعة 03 UTC
الرؤية: 2000 متر
غيوم متفرقة على ارتفاع 400 قدم
بلورات ثلجية, غشاء

TAF: UAKK 221700Z 2218/2318 VRB02MPS 9999 SCT010 BKN100 TXM09/2309Z TNM25/2301Z TEMPO 2218/2303 2000 IC BR SCT004

أرصاد الطقس والتوقعات من أكثر من 4000 مطار (تقارير الطقس للمطار METAR والتنبؤ بالطقس بالمطارTAF).

المحطات المتاحة هي النقط الصفراء والحمراء على الخريطة.

حرك المؤشر فوق النقطة لمعرفة اسم المحطة.

ثم انقر لمعرفة أرصاد وتوقعات الطقس.

لتغيير الخارطة: اضغط على الأزرار الخضراء مع رمز الصليب الأسود للتكبير. على الزر الأخضر مع شرطة للتصغير، أو على الأسهم الخضراء للخرائط المجاورة.


METAR-TAF: